»·PEaware :: N5955E KLAX-KSAN

N5955E :: KLAX-KSAN

FLIGHT INFORMATION

Flight Status: Arrived
Operator: Privately registered:
United States
More flights under this callsign
Pilot: Ryan L. (18770)
Aircraft: CESSNA 172 SKYHAWK
(C172)
More flights by this aircraft type
Origin: KLAX Los Angeles Intl
United States
Destination: KSAN San Diego Intl-Lindbergh
United States
More flights between these airports :: More routes between these airports
Route: +
File this flight plan on PilotEdge
Remarks: CAT10
Altitude:
(Current/Filed)
0ft
Speed:
(Current/Filed)
0kts
Departed: 15-May-18 07:40 PM
Arrived: 15-May-18 08:44 PM
Distance/Time
Traveled:
95nm/1:04
Distance/Time
To Go:
Arrived

Flight Plot

Page will automatically refresh every two minutes.


Map Options




Map Legend


Flown Route
Filed Route
Departure Airport
Arrival Airport
Navaid (VOR, NDB)
Fix

Horizontal Profiles

Position Reports

Time Latitude Longitude Heading Altitude Ground
Speed
15-May-18 19:35 33.935428 -118.380310 68 96ft 0kts
15-May-18 19:36 33.935428 -118.380310 68 96ft 0kts
15-May-18 19:37 33.936041 -118.380303 353 96ft 3kts
15-May-18 19:38 33.936443 -118.382748 336 96ft 0kts
15-May-18 19:39 33.936531 -118.382780 343 96ft 5kts
15-May-18 19:40 33.935820 -118.396456 261 232ft 74kts
15-May-18 19:41 33.931673 -118.422438 261 671ft 86kts
15-May-18 19:42 33.930471 -118.451528 267 1120ft 84kts
15-May-18 19:43 33.929289 -118.481420 267 1776ft 94kts
15-May-18 19:44 33.908065 -118.490415 174 2478ft 94kts
15-May-18 19:45 33.881300 -118.487188 174 2908ft 111kts
15-May-18 19:46 33.849055 -118.483477 174 2903ft 118kts
15-May-18 19:47 33.816256 -118.479795 174 2903ft 118kts
15-May-18 19:48 33.783854 -118.476193 174 3459ft 116kts
15-May-18 19:49 33.758994 -118.452965 124 3819ft 119kts
15-May-18 19:50 33.738901 -118.422682 131 4415ft 112kts
15-May-18 19:51 33.718771 -118.396194 133 5009ft 103kts
15-May-18 19:52 33.700040 -118.372507 133 5604ft 92kts
15-May-18 19:53 33.682677 -118.350768 133 6199ft 88kts
15-May-18 19:54 33.665906 -118.329895 133 6796ft 85kts
15-May-18 19:55 33.649335 -118.309341 133 7321ft 88kts
15-May-18 19:56 33.630525 -118.286190 134 7509ft 112kts
15-May-18 19:57 33.608612 -118.259292 134 7507ft 117kts
15-May-18 19:58 33.585817 -118.231196 134 7507ft 117kts
15-May-18 19:59 33.565728 -118.206416 134 7507ft 117kts
15-May-18 20:00 33.542957 -118.178328 134 7507ft 117kts
15-May-18 20:01 33.520332 -118.150438 134 7507ft 117kts
15-May-18 20:02 33.497610 -118.122449 134 7507ft 117kts
15-May-18 20:03 33.475019 -118.094653 134 7507ft 117kts
15-May-18 20:04 33.452293 -118.066691 134 7507ft 117kts
15-May-18 20:05 33.429567 -118.038773 134 7507ft 117kts
15-May-18 20:06 33.406791 -118.010807 134 7507ft 117kts
15-May-18 20:07 33.384109 -117.982977 134 7507ft 117kts
15-May-18 20:08 33.361329 -117.955051 134 7507ft 117kts
15-May-18 20:09 33.338602 -117.927204 134 7507ft 117kts
15-May-18 20:10 33.315791 -117.899286 134 7507ft 117kts
15-May-18 20:11 33.293015 -117.871434 134 7507ft 117kts
15-May-18 20:12 33.270221 -117.843577 134 7507ft 117kts
15-May-18 20:13 33.247375 -117.815673 134 7507ft 117kts
15-May-18 20:14 33.224544 -117.787814 134 7507ft 117kts
15-May-18 20:15 33.201758 -117.760032 134 7507ft 117kts
15-May-18 20:16 33.178863 -117.732148 134 7507ft 117kts
15-May-18 20:17 33.155975 -117.704286 134 7507ft 117kts
15-May-18 20:18 33.133146 -117.676525 134 7507ft 117kts
15-May-18 20:19 33.110255 -117.648707 134 7507ft 117kts
15-May-18 20:20 33.087386 -117.620925 134 7507ft 117kts
15-May-18 20:21 33.064858 -117.592837 132 7507ft 117kts
15-May-18 20:22 33.042272 -117.564698 133 7507ft 117kts
15-May-18 20:23 33.021196 -117.535705 100 7504ft 117kts
15-May-18 20:24 33.038651 -117.515389 25 7001ft 86kts
15-May-18 20:25 33.060759 -117.503758 21 6210ft 96kts
15-May-18 20:26 33.075648 -117.478050 67 5207ft 101kts
15-May-18 20:27 33.078924 -117.445064 95 4205ft 101kts
15-May-18 20:28 33.074592 -117.412705 98 3535ft 90kts
15-May-18 20:29 33.060881 -117.389109 130 3548ft 99kts
15-May-18 20:30 33.041716 -117.363370 131 3544ft 123kts
15-May-18 20:31 33.016241 -117.341288 152 3543ft 123kts
15-May-18 20:32 32.987780 -117.325438 157 3544ft 119kts
15-May-18 20:33 32.956928 -117.310698 160 3544ft 119kts
15-May-18 20:34 32.926216 -117.295898 156 3544ft 119kts
15-May-18 20:35 32.895869 -117.280023 156 3515ft 120kts
15-May-18 20:36 32.865393 -117.264175 156 3518ft 119kts
15-May-18 20:37 32.835012 -117.248472 156 3516ft 114kts
15-May-18 20:38 32.813239 -117.237079 154 3214ft 96kts
15-May-18 20:39 32.787854 -117.222804 155 1980ft 118kts
15-May-18 20:40 32.760342 -117.207435 154 1055ft 90kts
15-May-18 20:41 32.751869 -117.181586 102 1064ft 81kts
15-May-18 20:42 32.747197 -117.157157 117 903ft 75kts
15-May-18 20:43 32.729626 -117.163635 245 543ft 72kts
15-May-18 20:44 32.732312 -117.184901 285 15ft 40kts
15-May-18 20:45 32.732517 -117.188544 193 15ft 0kts
15-May-18 20:46 32.732269 -117.190911 274 15ft 8kts
15-May-18 20:47 32.732289 -117.191128 276 15ft 0kts
15-May-18 20:48 32.732289 -117.191128 276 15ft 0kts
15-May-18 20:49 32.732289 -117.191128 276 15ft 0kts

Navigation Log

Ident Type
1. KLAX Airport
2. KSAN Airport